createdAt,value
2017-04-02T00:00:10.016Z,0
2017-04-02T00:00:50.597Z,0
2017-04-02T00:01:31.182Z,0
2017-04-02T00:02:11.754Z,0
2017-04-02T00:02:52.332Z,0
2017-04-02T00:03:32.918Z,0
2017-04-02T00:04:13.533Z,0
2017-04-02T00:04:54.121Z,0
2017-04-02T00:05:34.700Z,0
2017-04-02T00:06:15.273Z,0
2017-04-02T00:06:55.878Z,0
2017-04-02T00:07:36.504Z,0
2017-04-02T00:08:17.121Z,0
2017-04-02T00:08:57.695Z,0
2017-04-02T00:09:38.265Z,0
2017-04-02T00:10:18.837Z,0
2017-04-02T00:10:59.420Z,0
2017-04-02T00:11:40.007Z,0
2017-04-02T00:12:20.586Z,0
2017-04-02T00:13:01.180Z,0
2017-04-02T00:13:41.758Z,0
2017-04-02T00:14:22.341Z,0
2017-04-02T00:15:02.940Z,0
2017-04-02T00:15:43.537Z,0
2017-04-02T00:16:24.158Z,0
2017-04-02T00:17:04.709Z,0
2017-04-02T00:17:45.279Z,0
2017-04-02T00:18:25.849Z,0
2017-04-02T00:19:06.472Z,0
2017-04-02T00:19:47.039Z,0
2017-04-02T00:20:27.614Z,0
2017-04-02T00:21:08.250Z,0
2017-04-02T00:21:48.864Z,0
2017-04-02T00:22:29.473Z,0
2017-04-02T00:23:10.074Z,0
2017-04-02T00:23:50.678Z,0
2017-04-02T00:24:31.271Z,0
2017-04-02T00:25:11.876Z,0
2017-04-02T00:25:52.459Z,0
2017-04-02T00:26:33.028Z,0
2017-04-02T00:27:13.633Z,0
2017-04-02T00:27:54.230Z,0
2017-04-02T00:28:34.820Z,0
2017-04-02T00:29:21.950Z,0
2017-04-02T00:30:02.560Z,0
2017-04-02T00:30:43.128Z,0
2017-04-02T00:31:23.709Z,0
2017-04-02T00:32:04.289Z,0
2017-04-02T00:32:44.885Z,0
2017-04-02T00:33:25.466Z,0
2017-04-02T00:34:06.091Z,0
2017-04-02T00:34:46.635Z,0
2017-04-02T00:35:27.241Z,0
2017-04-02T00:36:07.853Z,0
2017-04-02T00:36:48.420Z,0
2017-04-02T00:37:29.032Z,0
2017-04-02T00:38:09.590Z,0
2017-04-02T00:38:50.176Z,0
2017-04-02T00:39:30.778Z,0
2017-04-02T00:40:11.345Z,0
2017-04-02T00:40:51.929Z,0
2017-04-02T00:41:32.512Z,0
2017-04-02T00:42:13.155Z,0
2017-04-02T00:42:53.754Z,0
2017-04-02T00:43:34.336Z,0
2017-04-02T00:44:14.915Z,0
2017-04-02T00:44:55.500Z,0
2017-04-02T00:45:36.105Z,0
2017-04-02T00:46:16.705Z,0
2017-04-02T00:46:57.298Z,0
2017-04-02T00:47:37.894Z,0
2017-04-02T00:48:18.467Z,0
2017-04-02T00:48:59.055Z,0
2017-04-02T00:49:39.635Z,0
2017-04-02T00:50:20.200Z,0
2017-04-02T00:51:00.828Z,0
2017-04-02T00:51:41.407Z,0
2017-04-02T00:52:21.977Z,0
2017-04-02T00:53:02.551Z,0
2017-04-02T00:53:43.152Z,0
2017-04-02T00:54:23.730Z,0
2017-04-02T00:55:04.304Z,0
2017-04-02T00:55:44.895Z,0
2017-04-02T00:56:25.481Z,0
2017-04-02T00:57:06.067Z,0
2017-04-02T00:57:46.646Z,0
2017-04-02T00:58:27.257Z,0
2017-04-02T00:59:07.866Z,0
2017-04-02T00:59:48.463Z,0
2017-04-02T01:00:29.060Z,0
2017-04-02T01:01:09.649Z,0
2017-04-02T01:01:50.253Z,0
2017-04-02T01:02:30.848Z,0
2017-04-02T01:03:11.438Z,0
2017-04-02T01:03:51.998Z,0
2017-04-02T01:04:32.610Z,0
2017-04-02T01:05:13.189Z,0
2017-04-02T01:05:53.784Z,0
2017-04-02T01:06:34.349Z,0
2017-04-02T01:07:14.934Z,0
2017-04-02T01:07:55.519Z,0
2017-04-02T01:08:36.108Z,0
2017-04-02T01:09:16.709Z,0
2017-04-02T01:09:57.317Z,0
2017-04-02T01:10:37.877Z,0
2017-04-02T01:11:18.457Z,0
2017-04-02T01:11:59.035Z,0
2017-04-02T01:12:39.618Z,0
2017-04-02T01:13:20.227Z,0
2017-04-02T01:14:00.778Z,0
2017-04-02T01:14:42.325Z,0
2017-04-02T01:15:22.914Z,0
2017-04-02T01:16:08.336Z,0
2017-04-02T01:16:48.962Z,0
2017-04-02T01:17:29.550Z,0
2017-04-02T01:18:10.152Z,0
2017-04-02T01:18:50.757Z,0
2017-04-02T01:19:31.388Z,0
2017-04-02T01:20:11.975Z,0
2017-04-02T01:20:52.584Z,0
2017-04-02T01:21:33.160Z,0
2017-04-02T01:22:13.788Z,0
2017-04-02T01:22:54.367Z,0
2017-04-02T01:23:34.937Z,0
2017-04-02T01:24:15.542Z,0
2017-04-02T01:24:56.131Z,0
2017-04-02T01:25:36.718Z,0
2017-04-02T01:26:17.296Z,0
2017-04-02T01:26:57.870Z,0
2017-04-02T01:27:38.483Z,0
2017-04-02T01:28:19.064Z,0
2017-04-02T01:28:59.650Z,0
2017-04-02T01:29:40.245Z,0
2017-04-02T01:30:20.830Z,0
2017-04-02T01:31:01.410Z,0
2017-04-02T01:31:42.019Z,0
2017-04-02T01:32:22.636Z,0
2017-04-02T01:33:03.194Z,0
2017-04-02T01:33:43.780Z,0
2017-04-02T01:34:24.367Z,0
2017-04-02T01:35:04.947Z,0
2017-04-02T01:35:45.554Z,0
2017-04-02T01:36:26.156Z,0
2017-04-02T01:37:06.749Z,0
2017-04-02T01:37:47.329Z,0
2017-04-02T01:38:27.932Z,0
2017-04-02T01:39:08.512Z,0
2017-04-02T01:39:49.105Z,0
2017-04-02T01:40:29.693Z,0
2017-04-02T01:41:10.305Z,0
2017-04-02T01:41:50.914Z,0
2017-04-02T01:42:31.462Z,0
2017-04-02T01:43:12.034Z,0
2017-04-02T01:43:52.608Z,0
2017-04-02T01:44:33.206Z,0
2017-04-02T01:45:13.782Z,0
2017-04-02T01:45:54.360Z,0
2017-04-02T01:46:34.935Z,0
2017-04-02T01:47:15.545Z,0
2017-04-02T01:47:56.129Z,0
2017-04-02T01:48:36.724Z,0
2017-04-02T01:49:17.323Z,0
2017-04-02T01:49:57.912Z,0
2017-04-02T01:50:38.551Z,0
2017-04-02T01:51:19.139Z,0
2017-04-02T01:51:59.715Z,0
2017-04-02T01:52:40.286Z,0
2017-04-02T01:53:20.877Z,0
2017-04-02T01:54:01.514Z,0
2017-04-02T01:54:42.089Z,0
2017-04-02T01:55:22.675Z,0
2017-04-02T01:56:03.291Z,0
2017-04-02T01:56:43.844Z,0
2017-04-02T01:57:24.406Z,0
2017-04-02T01:58:05.000Z,0
2017-04-02T01:58:45.588Z,0
2017-04-02T01:59:26.157Z,0
2017-04-02T02:00:06.736Z,0
2017-04-02T02:00:47.321Z,0
2017-04-02T02:01:27.916Z,0
2017-04-02T02:02:08.491Z,0
2017-04-02T02:02:49.063Z,0
2017-04-02T02:03:29.645Z,0
2017-04-02T02:04:10.243Z,0
2017-04-02T02:04:50.865Z,0
2017-04-02T02:05:31.488Z,0
2017-04-02T02:06:12.089Z,0
2017-04-02T02:06:52.668Z,0
2017-04-02T02:07:33.271Z,0
2017-04-02T02:08:13.878Z,0
2017-04-02T02:08:54.475Z,0
2017-04-02T02:09:35.070Z,0
2017-04-02T02:10:15.676Z,0
2017-04-02T02:10:56.267Z,0
2017-04-02T02:11:36.885Z,0
2017-04-02T02:12:17.472Z,0
2017-04-02T02:12:58.066Z,0
2017-04-02T02:13:38.631Z,0
2017-04-02T02:14:19.224Z,0
2017-04-02T02:14:59.824Z,0
2017-04-02T02:15:40.391Z,0
2017-04-02T02:16:20.998Z,0
2017-04-02T02:17:01.581Z,0
2017-04-02T02:17:42.158Z,0
2017-04-02T02:18:22.762Z,0
2017-04-02T02:19:03.362Z,0
2017-04-02T02:19:43.946Z,0
2017-04-02T02:20:24.533Z,0
2017-04-02T02:21:05.126Z,0
2017-04-02T02:21:45.722Z,0
2017-04-02T02:22:26.307Z,0
2017-04-02T02:23:06.894Z,0
2017-04-02T02:23:47.462Z,0
2017-04-02T02:24:28.054Z,0
2017-04-02T02:25:08.664Z,0
2017-04-02T02:25:49.266Z,0
2017-04-02T02:26:29.841Z,0
2017-04-02T02:27:10.453Z,0
2017-04-02T02:27:51.017Z,0
2017-04-02T02:28:31.623Z,0
2017-04-02T02:29:12.191Z,0
2017-04-02T02:29:52.787Z,0
2017-04-02T02:30:35.215Z,0
2017-04-02T02:31:15.873Z,0
2017-04-02T02:31:56.504Z,0
2017-04-02T02:32:37.119Z,0
2017-04-02T02:33:17.712Z,0
2017-04-02T02:33:58.290Z,0
2017-04-02T02:34:38.881Z,0
2017-04-02T02:35:19.450Z,0
2017-04-02T02:36:00.032Z,0
2017-04-02T02:36:40.611Z,0
2017-04-02T02:37:21.178Z,0
2017-04-02T02:38:01.769Z,0
2017-04-02T02:38:42.360Z,0
2017-04-02T02:39:22.929Z,0
2017-04-02T02:40:03.509Z,0
2017-04-02T02:40:44.107Z,0
2017-04-02T02:41:24.690Z,0
2017-04-02T02:42:05.278Z,0
2017-04-02T02:42:45.869Z,0
2017-04-02T02:43:26.458Z,0
2017-04-02T02:44:07.036Z,0
2017-04-02T02:44:47.638Z,0
2017-04-02T02:45:28.230Z,0
2017-04-02T02:46:08.870Z,0
2017-04-02T02:46:49.434Z,0
2017-04-02T02:47:30.008Z,0
2017-04-02T02:48:10.618Z,0
2017-04-02T02:48:51.180Z,0
2017-04-02T02:49:31.777Z,0
2017-04-02T02:50:12.361Z,0
2017-04-02T02:50:52.943Z,0
2017-04-02T02:51:33.509Z,0
2017-04-02T02:52:14.099Z,0
2017-04-02T02:52:59.567Z,0
2017-04-02T02:53:40.176Z,0
2017-04-02T02:54:20.731Z,0
2017-04-02T02:55:01.349Z,0
2017-04-02T02:55:41.938Z,0
2017-04-02T02:56:22.510Z,0
2017-04-02T02:57:03.118Z,0
2017-04-02T02:57:43.677Z,0
2017-04-02T02:58:24.310Z,0
2017-04-02T02:59:04.890Z,0
2017-04-02T02:59:45.468Z,0
2017-04-02T03:00:26.064Z,0
2017-04-02T03:05:48.398Z,0
2017-04-02T03:08:16.721Z,0
2017-04-02T03:08:57.310Z,0
2017-04-02T03:09:37.915Z,0
2017-04-02T03:10:18.476Z,0
2017-04-02T03:10:59.089Z,0
2017-04-02T03:11:39.693Z,0
2017-04-02T03:12:20.280Z,0
2017-04-02T03:13:00.889Z,0
2017-04-02T03:13:41.488Z,0
2017-04-02T03:14:22.075Z,0
2017-04-02T03:15:02.648Z,0
2017-04-02T03:15:43.273Z,0
2017-04-02T03:16:23.911Z,0
2017-04-02T03:17:04.495Z,0
2017-04-02T03:17:45.065Z,0
2017-04-02T03:18:25.641Z,0
2017-04-02T03:19:06.233Z,0
2017-04-02T03:19:46.859Z,0
2017-04-02T03:20:27.470Z,0
2017-04-02T03:21:08.050Z,0
2017-04-02T03:21:48.653Z,0
2017-04-02T03:22:29.231Z,0
2017-04-02T03:23:09.841Z,0
2017-04-02T03:23:50.416Z,0
2017-04-02T03:26:03.487Z,0
2017-04-02T03:28:38.384Z,0
2017-04-02T03:29:18.963Z,0
2017-04-02T03:29:59.537Z,0
2017-04-02T03:31:30.741Z,0
2017-04-02T03:32:11.338Z,0
2017-04-02T03:32:51.916Z,0
2017-04-02T03:35:11.542Z,0
2017-04-02T03:35:52.131Z,0
2017-04-02T03:38:05.445Z,0
2017-04-02T03:38:46.021Z,0
2017-04-02T03:39:26.593Z,0
2017-04-02T03:40:07.206Z,0
2017-04-02T03:40:47.765Z,0
2017-04-02T03:41:28.354Z,0
2017-04-02T03:42:08.939Z,0
2017-04-02T03:42:49.575Z,0
2017-04-02T03:43:33.859Z,0
2017-04-02T03:44:19.245Z,0
2017-04-02T03:44:59.828Z,0
2017-04-02T03:45:40.392Z,0
2017-04-02T03:46:20.955Z,0
2017-04-02T03:47:01.558Z,0
2017-04-02T03:47:42.148Z,0
2017-04-02T03:48:22.739Z,0
2017-04-02T03:49:03.312Z,0
2017-04-02T03:49:43.895Z,0
2017-04-02T03:50:24.471Z,0
2017-04-02T03:51:05.067Z,0
2017-04-02T03:51:45.656Z,0
2017-04-02T03:52:26.231Z,0
2017-04-02T03:53:06.804Z,0
2017-04-02T03:53:47.418Z,0
2017-04-02T03:54:27.987Z,0
2017-04-02T03:55:08.572Z,0
2017-04-02T03:55:49.148Z,0
2017-04-02T03:56:29.732Z,0
2017-04-02T03:57:10.321Z,0
2017-04-02T03:57:50.881Z,0
2017-04-02T03:58:31.454Z,0
2017-04-02T03:59:12.019Z,0
2017-04-02T03:59:52.621Z,0
2017-04-02T04:00:33.197Z,0
2017-04-02T04:01:13.788Z,0
2017-04-02T04:01:54.379Z,0
2017-04-02T04:02:34.997Z,0
2017-04-02T04:03:15.657Z,0
2017-04-02T04:03:56.242Z,0
2017-04-02T04:04:36.848Z,0
2017-04-02T04:05:17.428Z,0
2017-04-02T04:05:58.055Z,0
2017-04-02T04:06:38.637Z,0
2017-04-02T04:07:19.202Z,0
2017-04-02T04:07:59.779Z,0
2017-04-02T04:08:40.349Z,0
2017-04-02T04:09:20.945Z,0
2017-04-02T04:10:01.533Z,0
2017-04-02T04:10:42.116Z,0
2017-04-02T04:11:22.690Z,0
2017-04-02T04:12:03.284Z,0
2017-04-02T04:12:43.849Z,0
2017-04-02T04:13:24.448Z,0
2017-04-02T04:14:05.033Z,0
2017-04-02T04:14:45.637Z,0
2017-04-02T04:15:26.207Z,0
2017-04-02T04:16:06.806Z,0
2017-04-02T04:16:47.376Z,0
2017-04-02T04:17:27.953Z,0
2017-04-02T04:18:08.560Z,0
2017-04-02T04:18:49.153Z,0
2017-04-02T04:19:29.747Z,0
2017-04-02T04:20:10.332Z,0
2017-04-02T04:20:53.473Z,0
2017-04-02T04:21:34.041Z,0
2017-04-02T04:22:14.619Z,0
2017-04-02T04:22:55.180Z,0
2017-04-02T04:23:35.757Z,0
2017-04-02T04:24:16.340Z,0
2017-04-02T04:24:56.941Z,0
2017-04-02T04:25:37.537Z,0
2017-04-02T04:26:18.130Z,0
2017-04-02T04:26:58.693Z,0
2017-04-02T04:27:39.277Z,0
2017-04-02T04:28:19.881Z,0
2017-04-02T04:29:00.483Z,0
2017-04-02T04:29:41.084Z,0
2017-04-02T04:30:21.671Z,0
2017-04-02T04:31:02.242Z,0
2017-04-02T04:31:43.665Z,0
2017-04-02T04:32:24.255Z,0
2017-04-02T04:33:04.827Z,0
2017-04-02T04:33:45.415Z,0
2017-04-02T04:34:26.006Z,0
2017-04-02T04:35:06.574Z,0
2017-04-02T04:35:47.182Z,0
2017-04-02T04:36:27.810Z,0
2017-04-02T04:37:08.356Z,0
2017-04-02T04:37:48.952Z,0
2017-04-02T04:38:29.555Z,0
2017-04-02T04:39:10.129Z,0
2017-04-02T04:39:51.324Z,0
2017-04-02T04:40:31.927Z,5
2017-04-02T04:41:12.513Z,5
2017-04-02T04:41:53.103Z,5
2017-04-02T04:42:33.730Z,5
2017-04-02T04:43:14.340Z,5
2017-04-02T04:43:54.976Z,5
2017-04-02T04:44:35.565Z,5
2017-04-02T04:47:09.061Z,5
2017-04-02T04:47:49.657Z,5
2017-04-02T04:48:30.544Z,5
2017-04-02T04:49:11.120Z,5
2017-04-02T04:49:51.720Z,10
2017-04-02T04:50:32.315Z,10
2017-04-02T04:51:12.886Z,10
2017-04-02T04:51:54.173Z,10
2017-04-02T04:52:34.763Z,10
2017-04-02T04:53:15.363Z,10
2017-04-02T04:53:55.976Z,10
2017-04-02T04:54:36.562Z,10
2017-04-02T04:55:17.130Z,10
2017-04-02T04:55:57.700Z,15
2017-04-02T04:56:38.291Z,15
2017-04-02T04:57:18.865Z,15
2017-04-02T04:58:00.419Z,15
2017-04-02T04:58:40.992Z,15
2017-04-02T04:59:21.606Z,15
2017-04-02T05:00:02.205Z,15
2017-04-02T05:00:43.771Z,15
2017-04-02T05:01:24.372Z,15
2017-04-02T05:02:04.966Z,15
2017-04-02T05:02:45.541Z,20
2017-04-02T05:03:26.166Z,20
2017-04-02T05:04:06.760Z,20
2017-04-02T05:04:47.376Z,20
2017-04-02T05:05:27.967Z,20
2017-04-02T05:06:08.554Z,20
2017-04-02T05:06:49.126Z,20
2017-04-02T05:07:29.705Z,20
2017-04-02T05:08:10.270Z,25
2017-04-02T05:08:50.873Z,25
2017-04-02T05:09:31.441Z,25
2017-04-02T05:10:12.029Z,25
2017-04-02T05:10:52.610Z,30
2017-04-02T05:11:33.242Z,30
2017-04-02T05:12:13.781Z,30
2017-04-02T05:12:54.352Z,30
2017-04-02T05:13:34.941Z,30
2017-04-02T05:14:15.502Z,35
2017-04-02T05:14:56.079Z,35
2017-04-02T05:15:36.744Z,35
2017-04-02T05:16:17.341Z,35
2017-04-02T05:16:57.918Z,40
2017-04-02T05:17:38.506Z,40
2017-04-02T05:18:19.084Z,40
2017-04-02T05:18:59.666Z,40
2017-04-02T05:19:40.248Z,45
2017-04-02T05:20:20.859Z,45
2017-04-02T05:21:01.475Z,45
2017-04-02T05:21:42.023Z,45
2017-04-02T05:22:22.664Z,45
2017-04-02T05:23:03.271Z,45
2017-04-02T05:23:43.797Z,45
2017-04-02T05:24:24.373Z,45
2017-04-02T05:25:04.942Z,45
2017-04-02T05:25:45.512Z,45
2017-04-02T05:26:26.095Z,45
2017-04-02T05:27:06.675Z,45
2017-04-02T05:27:47.262Z,50
2017-04-02T05:28:27.841Z,50
2017-04-02T05:29:08.431Z,50
2017-04-02T05:29:49.035Z,50
2017-04-02T05:30:29.603Z,55
2017-04-02T05:31:10.244Z,55
2017-04-02T05:31:50.806Z,60
2017-04-02T05:32:31.392Z,60
2017-04-02T05:33:12.010Z,60
2017-04-02T05:33:52.638Z,65
2017-04-02T05:34:33.214Z,65
2017-04-02T05:35:13.818Z,65
2017-04-02T05:35:54.421Z,70
2017-04-02T05:36:35.023Z,70
2017-04-02T05:37:15.619Z,70
2017-04-02T05:37:56.199Z,70
2017-04-02T05:38:36.800Z,70
2017-04-02T05:39:17.422Z,75
2017-04-02T05:39:58.049Z,75
2017-04-02T05:40:38.654Z,75
2017-04-02T05:41:19.273Z,80
2017-04-02T05:41:59.854Z,80
2017-04-02T05:42:40.456Z,80
2017-04-02T05:43:21.056Z,80
2017-04-02T05:44:01.641Z,85
2017-04-02T05:44:42.219Z,85
2017-04-02T05:45:22.829Z,85
2017-04-02T05:46:03.406Z,85
2017-04-02T05:46:44.076Z,85
2017-04-02T05:47:24.687Z,90
2017-04-02T05:48:05.285Z,90
2017-04-02T05:48:45.872Z,90
2017-04-02T05:49:26.450Z,95
2017-04-02T05:50:07.040Z,95
2017-04-02T05:50:47.636Z,95
2017-04-02T05:51:28.270Z,95
2017-04-02T05:52:08.847Z,90
2017-04-02T05:52:49.426Z,95
2017-04-02T05:53:29.986Z,100
2017-04-02T05:54:10.578Z,100
2017-04-02T05:54:51.159Z,100
2017-04-02T05:55:31.761Z,105
2017-04-02T05:56:12.407Z,105
2017-04-02T05:56:53.083Z,105
2017-04-02T05:57:33.683Z,105
2017-04-02T05:58:14.268Z,105
2017-04-02T05:58:54.872Z,110
2017-04-02T05:59:35.459Z,115
2017-04-02T06:00:16.097Z,115
2017-04-02T06:00:56.657Z,115
2017-04-02T06:01:37.218Z,115
2017-04-02T06:02:17.831Z,115
2017-04-02T06:02:58.465Z,115
2017-04-02T06:05:19.543Z,120
2017-04-02T06:06:00.124Z,125
2017-04-02T06:06:40.743Z,125
2017-04-02T06:07:21.322Z,130
2017-04-02T06:08:01.897Z,135
2017-04-02T06:08:42.468Z,140
2017-04-02T06:09:23.051Z,145
2017-04-02T06:11:36.139Z,165
2017-04-02T06:12:16.679Z,160
2017-04-02T06:12:57.270Z,145
2017-04-02T06:13:37.889Z,135
2017-04-02T06:14:18.474Z,125
2017-04-02T06:15:07.685Z,120
2017-04-02T06:17:20.621Z,90
2017-04-02T06:18:01.182Z,85
2017-04-02T06:18:41.765Z,85
2017-04-02T06:19:22.338Z,85
2017-04-02T06:20:02.915Z,80
2017-04-02T06:20:43.499Z,80
2017-04-02T06:21:24.137Z,80
2017-04-02T06:22:04.667Z,75
2017-04-02T06:22:45.279Z,80
2017-04-02T06:23:25.854Z,85
2017-04-02T06:24:06.417Z,85
2017-04-02T06:24:46.992Z,95
2017-04-02T06:25:27.612Z,95
2017-04-02T06:26:08.207Z,100
2017-04-02T06:26:48.787Z,105
2017-04-02T06:27:29.373Z,120
2017-04-02T06:28:09.960Z,135
2017-04-02T06:28:50.553Z,155
2017-04-02T06:29:31.126Z,170
2017-04-02T06:30:11.697Z,180
2017-04-02T06:30:54.786Z,175
2017-04-02T06:31:35.361Z,180
2017-04-02T06:32:15.941Z,200
2017-04-02T06:32:56.516Z,205
2017-04-02T06:33:37.096Z,205
2017-04-02T06:34:17.687Z,210
2017-04-02T06:34:58.287Z,220
2017-04-02T06:35:39.533Z,225
2017-04-02T06:36:20.113Z,230
2017-04-02T06:37:00.810Z,225
2017-04-02T06:37:41.380Z,230
2017-04-02T06:38:21.956Z,240
2017-04-02T06:39:02.547Z,315
2017-04-02T06:39:43.135Z,460
2017-04-02T06:40:23.720Z,645
2017-04-02T06:41:04.309Z,400
2017-04-02T06:41:44.901Z,440
2017-04-02T06:42:25.517Z,285
2017-04-02T06:43:06.102Z,710
2017-04-02T06:43:46.694Z,200
2017-04-02T06:44:27.409Z,335
2017-04-02T06:45:07.999Z,300
2017-04-02T06:45:48.567Z,295
2017-04-02T06:46:29.150Z,175
2017-04-02T06:47:09.798Z,175
2017-04-02T06:47:50.369Z,255
2017-04-02T06:48:30.943Z,240
2017-04-02T06:49:11.577Z,245
2017-04-02T06:49:52.150Z,410
2017-04-02T06:50:32.730Z,160
2017-04-02T06:51:13.309Z,165
2017-04-02T06:51:53.879Z,165
2017-04-02T06:52:34.446Z,170
2017-04-02T06:53:15.034Z,165
2017-04-02T06:53:55.631Z,175
2017-04-02T06:54:36.251Z,190
2017-04-02T06:55:16.855Z,210
2017-04-02T06:55:57.444Z,245
2017-04-02T06:56:38.108Z,410
2017-04-02T06:57:18.686Z,620
2017-04-02T06:57:59.278Z,995
2017-04-02T06:58:39.854Z,1105
2017-04-02T06:59:20.439Z,680
2017-04-02T07:00:01.008Z,1045
2017-04-02T07:00:41.615Z,1045
2017-04-02T07:01:22.182Z,985
2017-04-02T07:02:02.754Z,1100
2017-04-02T07:02:43.333Z,1065
2017-04-02T07:03:23.948Z,1045
2017-04-02T07:04:04.606Z,1055
2017-04-02T07:04:45.207Z,1055
2017-04-02T07:05:25.817Z,985
2017-04-02T07:06:06.387Z,1045
2017-04-02T07:06:48.841Z,1100
2017-04-02T07:07:29.429Z,1075
2017-04-02T07:08:10.034Z,1065
2017-04-02T07:08:50.611Z,1045
2017-04-02T07:09:31.217Z,1095
2017-04-02T07:10:11.797Z,1095
2017-04-02T07:10:52.375Z,1130
2017-04-02T07:11:32.977Z,1210
2017-04-02T07:12:13.590Z,1195
2017-04-02T07:12:54.188Z,1155
2017-04-02T07:13:34.789Z,1135
2017-04-02T07:14:15.384Z,1040
2017-04-02T07:14:55.971Z,1170
2017-04-02T07:15:36.588Z,1160
2017-04-02T07:16:17.184Z,1160
2017-04-02T07:16:58.408Z,1175
2017-04-02T07:17:38.979Z,1150
2017-04-02T07:18:19.549Z,1205
2017-04-02T07:19:00.153Z,1175
2017-04-02T07:19:40.752Z,1165
2017-04-02T07:20:21.374Z,1135
2017-04-02T07:21:01.965Z,1115
2017-04-02T07:21:42.569Z,1120
2017-04-02T07:22:23.189Z,1105
2017-04-02T07:23:03.768Z,1075
2017-04-02T07:23:44.351Z,1030
2017-04-02T07:24:25.040Z,580
2017-04-02T07:25:05.667Z,335
2017-04-02T07:25:46.237Z,290
2017-04-02T07:26:26.826Z,250
2017-04-02T07:27:07.435Z,230
2017-04-02T07:27:48.057Z,235
2017-04-02T07:28:28.644Z,205
2017-04-02T07:29:09.228Z,215
2017-04-02T07:29:49.829Z,210
2017-04-02T07:30:30.414Z,210
2017-04-02T07:31:10.994Z,210
2017-04-02T07:31:51.576Z,170
2017-04-02T07:32:32.161Z,145
2017-04-02T07:33:12.785Z,135
2017-04-02T07:33:53.425Z,140
2017-04-02T07:34:33.991Z,125
2017-04-02T07:35:14.581Z,120
2017-04-02T07:35:55.201Z,135
2017-04-02T07:36:35.815Z,110
2017-04-02T07:37:16.418Z,100
2017-04-02T07:37:57.003Z,95
2017-04-02T07:38:37.605Z,90
2017-04-02T07:39:18.227Z,85
2017-04-02T07:39:58.816Z,85
2017-04-02T07:40:39.393Z,85
2017-04-02T07:41:19.976Z,85
2017-04-02T07:42:00.551Z,85
2017-04-02T07:42:41.131Z,90
2017-04-02T07:43:21.725Z,90
2017-04-02T07:44:02.344Z,95
2017-04-02T07:44:42.924Z,100
2017-04-02T07:45:23.521Z,100
2017-04-02T07:46:04.104Z,105
2017-04-02T07:46:44.732Z,115
2017-04-02T07:47:25.355Z,125
2017-04-02T07:48:08.525Z,215
2017-04-02T07:48:49.267Z,195
2017-04-02T07:49:30.188Z,200
2017-04-02T07:50:15.746Z,320
2017-04-02T07:51:00.823Z,595
2017-04-02T07:51:41.438Z,205
2017-04-02T07:52:22.028Z,185
2017-04-02T07:53:02.756Z,170
2017-04-02T07:53:43.523Z,180
2017-04-02T07:54:24.115Z,225
2017-04-02T07:55:04.691Z,800
2017-04-02T07:55:45.324Z,930
2017-04-02T07:56:25.892Z,1010
2017-04-02T07:57:06.467Z,905
2017-04-02T07:57:47.036Z,665
2017-04-02T07:58:27.619Z,945
2017-04-02T07:59:08.202Z,975
2017-04-02T07:59:48.818Z,760
2017-04-02T08:00:29.399Z,515
2017-04-02T08:01:10.018Z,340
2017-04-02T08:01:50.636Z,285
2017-04-02T08:02:31.224Z,230
2017-04-02T08:03:11.819Z,205
2017-04-02T08:03:52.427Z,195
2017-04-02T08:04:33.055Z,185
2017-04-02T08:05:13.608Z,180
2017-04-02T08:05:54.182Z,190
2017-04-02T08:06:34.805Z,210
2017-04-02T08:07:15.378Z,245
2017-04-02T08:07:56.023Z,235
2017-04-02T08:08:36.640Z,280
2017-04-02T08:09:17.257Z,270
2017-04-02T08:09:57.888Z,285
2017-04-02T08:10:38.492Z,320
2017-04-02T08:11:19.086Z,310
2017-04-02T08:11:59.684Z,315
2017-04-02T08:12:40.286Z,715
2017-04-02T08:13:20.885Z,610
2017-04-02T08:14:01.505Z,675
2017-04-02T08:14:42.105Z,505
2017-04-02T08:15:22.688Z,545
2017-04-02T08:16:03.299Z,475
2017-04-02T08:16:43.896Z,1360
2017-04-02T08:17:24.469Z,530
2017-04-02T08:18:05.066Z,345
2017-04-02T08:18:45.654Z,365
2017-04-02T08:19:26.231Z,555
2017-04-02T08:20:06.816Z,540
2017-04-02T08:20:47.440Z,545
2017-04-02T08:21:28.028Z,535
2017-04-02T08:22:08.663Z,490
2017-04-02T08:22:49.257Z,490
2017-04-02T08:23:29.817Z,525
2017-04-02T08:24:10.410Z,410
2017-04-02T08:24:51.007Z,450
2017-04-02T08:25:32.260Z,450
2017-04-02T08:26:12.862Z,420
2017-04-02T08:26:53.468Z,380
2017-04-02T08:27:34.052Z,485
2017-04-02T08:28:14.686Z,425
2017-04-02T08:28:58.133Z,395
2017-04-02T08:29:41.046Z,340
2017-04-02T08:30:21.643Z,355
2017-04-02T08:31:02.555Z,335
2017-04-02T08:31:43.814Z,345
2017-04-02T08:32:26.796Z,345
2017-04-02T08:33:08.189Z,420
2017-04-02T08:33:51.409Z,375
2017-04-02T08:34:32.799Z,440
2017-04-02T08:35:13.940Z,430
2017-04-02T08:35:55.052Z,335
2017-04-02T08:36:35.633Z,375
2017-04-02T08:37:16.229Z,430
2017-04-02T08:37:57.172Z,430
2017-04-02T08:38:40.116Z,425
2017-04-02T08:39:21.260Z,410
2017-04-02T08:40:04.721Z,400
2017-04-02T08:40:46.528Z,390
2017-04-02T08:41:27.674Z,385
2017-04-02T08:42:12.646Z,385
2017-04-02T08:42:54.431Z,380
2017-04-02T08:43:37.256Z,380
2017-04-02T08:44:18.828Z,380
2017-04-02T08:45:01.756Z,370
2017-04-02T08:45:44.053Z,365
2017-04-02T08:46:25.054Z,360
2017-04-02T08:47:06.985Z,365
2017-04-02T08:47:50.176Z,365
2017-04-02T08:48:32.907Z,370
2017-04-02T08:49:13.540Z,360
2017-04-02T08:49:54.138Z,355
2017-04-02T08:50:35.965Z,325
2017-04-02T08:51:17.708Z,310
2017-04-02T08:51:58.286Z,290
2017-04-02T08:52:39.269Z,285
2017-04-02T08:53:20.815Z,280
2017-04-02T08:54:02.869Z,275
2017-04-02T08:54:44.741Z,275
2017-04-02T08:55:26.190Z,265
2017-04-02T08:56:07.383Z,260
2017-04-02T08:56:49.050Z,255
2017-04-02T08:57:29.639Z,245
2017-04-02T08:58:10.277Z,245
2017-04-02T08:58:50.855Z,245
2017-04-02T08:59:31.457Z,290
2017-04-02T09:00:12.085Z,295
2017-04-02T09:00:52.680Z,320
2017-04-02T09:01:33.284Z,305
2017-04-02T09:02:13.891Z,325
2017-04-02T09:02:54.490Z,320
2017-04-02T09:03:35.101Z,325
2017-04-02T09:04:15.708Z,315
2017-04-02T09:04:56.291Z,310
2017-04-02T09:05:36.892Z,310
2017-04-02T09:06:17.523Z,310
2017-04-02T09:06:58.142Z,305
2017-04-02T09:07:38.767Z,300
2017-04-02T09:08:19.364Z,280
2017-04-02T09:08:59.961Z,235
2017-04-02T09:09:40.558Z,245
2017-04-02T09:10:21.174Z,265
2017-04-02T09:11:01.745Z,280
2017-04-02T09:11:42.318Z,290
2017-04-02T09:12:22.903Z,295
2017-04-02T09:13:03.492Z,275
2017-04-02T09:13:44.087Z,290
2017-04-02T09:14:24.677Z,275
2017-04-02T09:15:05.333Z,265
2017-04-02T09:15:45.921Z,265
2017-04-02T09:16:26.505Z,270
2017-04-02T09:17:07.087Z,260
2017-04-02T09:17:47.700Z,265
2017-04-02T09:18:28.326Z,275
2017-04-02T09:19:08.923Z,290
2017-04-02T09:19:49.496Z,290
2017-04-02T09:20:30.570Z,300
2017-04-02T09:21:11.407Z,295
2017-04-02T09:21:52.006Z,300
2017-04-02T09:22:32.610Z,300
2017-04-02T09:23:13.254Z,290
2017-04-02T09:23:53.843Z,295
2017-04-02T09:24:34.440Z,295
2017-04-02T09:25:15.009Z,295
2017-04-02T09:25:55.615Z,290
2017-04-02T09:26:36.216Z,290
2017-04-02T09:27:16.805Z,280
2017-04-02T09:27:57.427Z,275
2017-04-02T09:28:38.002Z,265
2017-04-02T09:29:18.593Z,275
2017-04-02T09:29:59.193Z,275
2017-04-02T09:30:39.762Z,275
2017-04-02T09:31:20.377Z,275
2017-04-02T09:32:00.969Z,275
2017-04-02T09:32:41.613Z,275
2017-04-02T09:33:22.259Z,275
2017-04-02T09:34:02.846Z,255
2017-04-02T09:34:43.450Z,265
2017-04-02T09:35:24.047Z,260
2017-04-02T09:36:04.620Z,245
2017-04-02T09:36:45.220Z,240
2017-04-02T09:37:26.952Z,240
2017-04-02T09:38:07.545Z,250
2017-04-02T09:38:48.173Z,260
2017-04-02T09:39:28.785Z,275
2017-04-02T09:40:09.397Z,260
2017-04-02T09:40:49.962Z,245
2017-04-02T09:41:30.573Z,220
2017-04-02T09:42:11.139Z,195
2017-04-02T09:42:51.742Z,170
2017-04-02T09:43:32.359Z,165
2017-04-02T09:44:12.966Z,170
2017-04-02T09:44:53.576Z,180
2017-04-02T09:45:34.321Z,180
2017-04-02T09:46:14.914Z,175
2017-04-02T09:46:55.483Z,180
2017-04-02T09:47:36.123Z,175
2017-04-02T09:48:16.712Z,170
2017-04-02T09:48:57.326Z,165
2017-04-02T09:49:37.914Z,175
2017-04-02T09:50:18.489Z,175
2017-04-02T09:50:59.121Z,185
2017-04-02T09:51:39.671Z,200
2017-04-02T09:52:20.249Z,200
2017-04-02T09:53:00.863Z,190
2017-04-02T09:53:41.491Z,160
2017-04-02T09:54:22.090Z,140
2017-04-02T09:55:02.652Z,135
2017-04-02T09:55:43.235Z,150
2017-04-02T09:56:23.835Z,165
2017-04-02T09:57:04.415Z,170
2017-04-02T09:57:45.011Z,175
2017-04-02T09:58:25.600Z,180
2017-04-02T09:59:06.231Z,185
2017-04-02T09:59:46.826Z,180
2017-04-02T10:00:27.418Z,180
2017-04-02T10:01:08.027Z,180
2017-04-02T10:01:48.640Z,180